Apache — WCY5541 — position and weather

sailwx.info

Track history (hours):
 
Tides and Currents Weather Stations Pressure Air Temp Water Temp Dewpoint Dewpoint Depression Visibility Wind Speed Wind Dir Waves Ship Positions

Apache

Owner: SAUSE BROS., COOS BAY, OR. More information available from US FCC via Universal Licensing System and Coast Guard Vessel Documentation Center.

Last reported at 2018-Jun-21 17:59 UTC. Time now 2018-Jun-21 18:01 UTC.
Position N 33°44' W 118°13'.

Length 15 m; draft 2 m.

Type: Towing. MMSI: 367008720.

Date/timePositionNaut miles runAvg speedWind from/ knotsBaromVisibWave heightAir tempDewpointWater temp
2018-Jun-21 17:59N 33°44' W 118°13'0 0.1
2018-Jun-21 17:26N 33°44' W 118°13'0 0.0
2018-Jun-21 16:59N 33°44' W 118°13'0 0.0
2018-Jun-21 16:29N 33°44' W 118°13'0 0.0
2018-Jun-21 15:59N 33°44' W 118°13'0 0.0
2018-Jun-21 15:29N 33°44' W 118°13'0 0.2
2018-Jun-21 14:59N 33°44' W 118°13'2 3.9
2018-Jun-21 14:30N 33°43' W 118°15'2 3.5
2018-Jun-21 14:00N 33°44' W 118°16'  
2018-Jun-17 18:45N 33°44' W 118°16'0 1.9
2018-Jun-17 18:30N 33°44' W 118°16'1 2.5
2018-Jun-17 18:00N 33°45' W 118°16'0 0.9
2018-Jun-17 17:28N 33°45' W 118°16'0 0.0
2018-Jun-17 16:58N 33°45' W 118°16'0 0.0
2018-Jun-17 16:28N 33°45' W 118°16'0 0.0
2018-Jun-17 15:58N 33°45' W 118°16'0 0.0
2018-Jun-17 15:28N 33°45' W 118°16'0 0.0
2018-Jun-17 14:58N 33°45' W 118°16'0 0.0
2018-Jun-17 14:28N 33°45' W 118°16'0 0.4
2018-Jun-17 14:00N 33°45' W 118°16'2 3.6
2018-Jun-17 13:30N 33°43' W 118°16'1 1.4
2018-Jun-17 13:01N 33°44' W 118°16'  
2018-Jun-15 02:02N 33°44' W 118°16'0 0.1
2018-Jun-15 01:59N 33°44' W 118°16'0 0.1
2018-Jun-15 01:26N 33°44' W 118°16'0 0.8
2018-Jun-15 01:01N 33°44' W 118°16'2 3.5
2018-Jun-15 00:30N 33°43' W 118°14'2 4.0
2018-Jun-15 00:00N 33°45' W 118°12'0 0.5
2018-Jun-14 23:29N 33°45' W 118°13'0 0.0
2018-Jun-14 22:56N 33°45' W 118°13'0 0.0
2018-Jun-14 22:29N 33°45' W 118°13'0 0.0
2018-Jun-14 21:50N 33°45' W 118°13'0 0.0
2018-Jun-14 21:29N 33°45' W 118°13'0 0.6
2018-Jun-14 21:00N 33°45' W 118°12'1 2.1
2018-Jun-14 20:27N 33°44' W 118°13'2 4.5
2018-Jun-14 20:01N 33°43' W 118°15'1 2.8
2018-Jun-14 19:30N 33°44' W 118°16'0 0.0
2018-Jun-14 19:00N 33°44' W 118°16'0 0.0
2018-Jun-14 18:30N 33°44' W 118°16'0 0.0
2018-Jun-14 17:57N 33°44' W 118°16'0 0.0
2018-Jun-14 17:30N 33°44' W 118°16'0 0.0
2018-Jun-14 17:00N 33°44' W 118°16'0 0.0
2018-Jun-14 16:30N 33°44' W 118°16'0 0.0
2018-Jun-14 15:51N 33°44' W 118°16'0 0.0
2018-Jun-14 15:30N 33°44' W 118°16'0 0.0
2018-Jun-14 15:00N 33°44' W 118°16'0 0.0
2018-Jun-14 14:30N 33°44' W 118°16'0 0.1
2018-Jun-14 13:57N 33°44' W 118°16'0 1.0
2018-Jun-14 13:30N 33°44' W 118°16'0 0.0
2018-Jun-13 23:13N 33°44' W 118°16'1 4.0
2018-Jun-13 23:00N 33°43' W 118°16'2 4.6
2018-Jun-13 22:30N 33°44' W 118°13'1 0.8
2018-Jun-13 21:52N 33°44' W 118°12'0 0.0
2018-Jun-13 21:25N 33°44' W 118°12'0 0.0
2018-Jun-13 20:58N 33°44' W 118°12'0 0.1
2018-Jun-13 20:28N 33°44' W 118°12'0 0.2
2018-Jun-13 19:55N 33°44' W 118°13'0 0.1
2018-Jun-13 19:28N 33°44' W 118°13'0 0.1
2018-Jun-13 18:55N 33°44' W 118°13'0 0.1
2018-Jun-13 18:28N 33°44' W 118°13'0 0.1
2018-Jun-13 17:58N 33°44' W 118°13'0 0.0
2018-Jun-13 17:28N 33°44' W 118°13'0 0.0
2018-Jun-13 16:58N 33°44' W 118°13'0 0.1
2018-Jun-13 16:28N 33°44' W 118°13'0 0.1
2018-Jun-13 15:53N 33°44' W 118°13'2 5.0
2018-Jun-13 15:30N 33°43' W 118°15'2 0.1
2018-Jun-13 00:57N 33°44' W 118°16'2 3.4
2018-Jun-13 00:30N 33°43' W 118°15'2 3.1
2018-Jun-13 00:00N 33°44' W 118°14'0 0.1
2018-Jun-12 23:30N 33°44' W 118°14'0 0.1
2018-Jun-12 23:00N 33°44' W 118°14'0 0.3
2018-Jun-12 22:30N 33°44' W 118°14'2 4.1
2018-Jun-12 22:00N 33°43' W 118°16'2 4.8
2018-Jun-12 21:30N 33°46' W 118°17'0 0.6
2018-Jun-12 20:59N 33°46' W 118°16'0 0.0
2018-Jun-12 20:29N 33°46' W 118°16'0 0.0
2018-Jun-12 19:59N 33°46' W 118°16'0 0.2
2018-Jun-12 19:28N 33°46' W 118°16'2 3.4
2018-Jun-12 18:57N 33°44' W 118°16'0 0.0
2018-Jun-12 18:27N 33°44' W 118°16'0 0.0
2018-Jun-12 18:00N 33°44' W 118°16'0 0.0
2018-Jun-12 17:30N 33°44' W 118°16'0 0.0
2018-Jun-12 17:00N 33°44' W 118°16'0 0.0
2018-Jun-12 16:30N 33°44' W 118°16'0 0.0
2018-Jun-12 16:00N 33°44' W 118°16'0 0.0
2018-Jun-12 15:30N 33°44' W 118°16'0 0.0
2018-Jun-12 14:57N 33°44' W 118°16'0 0.0
2018-Jun-12 14:30N 33°44' W 118°16'0 0.0
2018-Jun-12 14:00N 33°44' W 118°16'1 1.5
2018-Jun-12 13:30N 33°43' W 118°16'1 1.3
2018-Jun-12 12:58N 33°44' W 118°16'  
Track history (hours):
 
Tides and Currents Weather Stations Pressure Air Temp Water Temp Dewpoint Dewpoint Depression Visibility Wind Speed Wind Dir Waves Ship Positions

Apache

Owner: SAUSE BROS., COOS BAY, OR. More information available from US FCC via Universal Licensing System and Coast Guard Vessel Documentation Center.

Last reported at 2018-Jun-21 17:59 UTC. Time now 2018-Jun-21 18:01 UTC.
Position N 33°44' W 118°13'.

Length 15 m; draft 2 m.

Type: Towing. MMSI: 367008720.

Date/timePositionNaut miles runAvg speedWind from/ knotsBaromVisibWave heightAir tempDewpointWater temp
2018-Jun-21 17:59N 33°44' W 118°13'0 0.1
2018-Jun-21 17:26N 33°44' W 118°13'0 0.0
2018-Jun-21 16:59N 33°44' W 118°13'0 0.0
2018-Jun-21 16:29N 33°44' W 118°13'0 0.0
2018-Jun-21 15:59N 33°44' W 118°13'0 0.0
2018-Jun-21 15:29N 33°44' W 118°13'0 0.2
2018-Jun-21 14:59N 33°44' W 118°13'2 3.9
2018-Jun-21 14:30N 33°43' W 118°15'2 3.5
2018-Jun-21 14:00N 33°44' W 118°16'  
2018-Jun-17 18:45N 33°44' W 118°16'0 1.9
2018-Jun-17 18:30N 33°44' W 118°16'1 2.5
2018-Jun-17 18:00N 33°45' W 118°16'0 0.9
2018-Jun-17 17:28N 33°45' W 118°16'0 0.0
2018-Jun-17 16:58N 33°45' W 118°16'0 0.0
2018-Jun-17 16:28N 33°45' W 118°16'0 0.0
2018-Jun-17 15:58N 33°45' W 118°16'0 0.0
2018-Jun-17 15:28N 33°45' W 118°16'0 0.0
2018-Jun-17 14:58N 33°45' W 118°16'0 0.0
2018-Jun-17 14:28N 33°45' W 118°16'0 0.4
2018-Jun-17 14:00N 33°45' W 118°16'2 3.6
2018-Jun-17 13:30N 33°43' W 118°16'1 1.4
2018-Jun-17 13:01N 33°44' W 118°16'  
2018-Jun-15 02:02N 33°44' W 118°16'0 0.1
2018-Jun-15 01:59N 33°44' W 118°16'0 0.1
2018-Jun-15 01:26N 33°44' W 118°16'0 0.8
2018-Jun-15 01:01N 33°44' W 118°16'2 3.5
2018-Jun-15 00:30N 33°43' W 118°14'2 4.0
2018-Jun-15 00:00N 33°45' W 118°12'0 0.5
2018-Jun-14 23:29N 33°45' W 118°13'0 0.0
2018-Jun-14 22:56N 33°45' W 118°13'0 0.0
2018-Jun-14 22:29N 33°45' W 118°13'0 0.0
2018-Jun-14 21:50N 33°45' W 118°13'0 0.0
2018-Jun-14 21:29N 33°45' W 118°13'0 0.6
2018-Jun-14 21:00N 33°45' W 118°12'1 2.1
2018-Jun-14 20:27N 33°44' W 118°13'2 4.5
2018-Jun-14 20:01N 33°43' W 118°15'1 2.8
2018-Jun-14 19:30N 33°44' W 118°16'0 0.0
2018-Jun-14 19:00N 33°44' W 118°16'0 0.0
2018-Jun-14 18:30N 33°44' W 118°16'0 0.0
2018-Jun-14 17:57N 33°44' W 118°16'0 0.0
2018-Jun-14 17:30N 33°44' W 118°16'0 0.0
2018-Jun-14 17:00N 33°44' W 118°16'0 0.0
2018-Jun-14 16:30N 33°44' W 118°16'0 0.0
2018-Jun-14 15:51N 33°44' W 118°16'0 0.0
2018-Jun-14 15:30N 33°44' W 118°16'0 0.0
2018-Jun-14 15:00N 33°44' W 118°16'0 0.0
2018-Jun-14 14:30N 33°44' W 118°16'0 0.1
2018-Jun-14 13:57N 33°44' W 118°16'0 1.0
2018-Jun-14 13:30N 33°44' W 118°16'0 0.0
2018-Jun-13 23:13N 33°44' W 118°16'1 4.0
2018-Jun-13 23:00N 33°43' W 118°16'2 4.6
2018-Jun-13 22:30N 33°44' W 118°13'1 0.8
2018-Jun-13 21:52N 33°44' W 118°12'0 0.0
2018-Jun-13 21:25N 33°44' W 118°12'0 0.0
2018-Jun-13 20:58N 33°44' W 118°12'0 0.1
2018-Jun-13 20:28N 33°44' W 118°12'0 0.2
2018-Jun-13 19:55N 33°44' W 118°13'0 0.1
2018-Jun-13 19:28N 33°44' W 118°13'0 0.1
2018-Jun-13 18:55N 33°44' W 118°13'0 0.1
2018-Jun-13 18:28N 33°44' W 118°13'0 0.1
2018-Jun-13 17:58N 33°44' W 118°13'0 0.0
2018-Jun-13 17:28N 33°44' W 118°13'0 0.0
2018-Jun-13 16:58N 33°44' W 118°13'0 0.1
2018-Jun-13 16:28N 33°44' W 118°13'0 0.1
2018-Jun-13 15:53N 33°44' W 118°13'2 5.0
2018-Jun-13 15:30N 33°43' W 118°15'2 0.1
2018-Jun-13 00:57N 33°44' W 118°16'2 3.4
2018-Jun-13 00:30N 33°43' W 118°15'2 3.1
2018-Jun-13 00:00N 33°44' W 118°14'0 0.1
2018-Jun-12 23:30N 33°44' W 118°14'0 0.1
2018-Jun-12 23:00N 33°44' W 118°14'0 0.3
2018-Jun-12 22:30N 33°44' W 118°14'2 4.1
2018-Jun-12 22:00N 33°43' W 118°16'2 4.8
2018-Jun-12 21:30N 33°46' W 118°17'0 0.6
2018-Jun-12 20:59N 33°46' W 118°16'0 0.0
2018-Jun-12 20:29N 33°46' W 118°16'0 0.0
2018-Jun-12 19:59N 33°46' W 118°16'0 0.2
2018-Jun-12 19:28N 33°46' W 118°16'2 3.4
2018-Jun-12 18:57N 33°44' W 118°16'0 0.0
2018-Jun-12 18:27N 33°44' W 118°16'0 0.0
2018-Jun-12 18:00N 33°44' W 118°16'0 0.0
2018-Jun-12 17:30N 33°44' W 118°16'0 0.0
2018-Jun-12 17:00N 33°44' W 118°16'0 0.0
2018-Jun-12 16:30N 33°44' W 118°16'0 0.0
2018-Jun-12 16:00N 33°44' W 118°16'0 0.0
2018-Jun-12 15:30N 33°44' W 118°16'0 0.0
2018-Jun-12 14:57N 33°44' W 118°16'0 0.0
2018-Jun-12 14:30N 33°44' W 118°16'0 0.0
2018-Jun-12 14:00N 33°44' W 118°16'1 1.5
2018-Jun-12 13:30N 33°43' W 118°16'1 1.3
2018-Jun-12 12:58N 33°44' W 118°16'  

Dump ship's entire track history